createdAt,value
2023-05-13T00:00:33.648Z,101262.19
2023-05-13T00:03:00.105Z,101258.56
2023-05-13T00:05:27.902Z,101264.13
2023-05-13T00:07:54.585Z,101261.06
2023-05-13T00:10:21.346Z,101259.84
2023-05-13T00:12:47.864Z,101263.09
2023-05-13T00:15:14.305Z,101260.09
2023-05-13T00:17:40.739Z,101255.91
2023-05-13T00:20:08.275Z,101253.41
2023-05-13T00:22:36.002Z,101254.13
2023-05-13T00:25:02.404Z,101252.63
2023-05-13T00:27:28.756Z,101255.84
2023-05-13T00:29:55.178Z,101252.69
2023-05-13T00:32:21.582Z,101256.94
2023-05-13T00:34:47.990Z,101260.53
2023-05-13T00:37:14.550Z,101258.97
2023-05-13T00:39:42.278Z,101253.31
2023-05-13T00:42:08.753Z,101255.16
2023-05-13T00:44:35.136Z,101254.22
2023-05-13T00:47:02.179Z,101266.31
2023-05-13T00:49:28.649Z,101261.38
2023-05-13T00:51:55.142Z,101266.06
2023-05-13T00:54:21.565Z,101265.38
2023-05-13T00:56:49.363Z,101273.13
2023-05-13T00:59:15.799Z,101272.22
2023-05-13T01:01:50.800Z,101266.44
2023-05-13T01:04:27.191Z,101265.59
2023-05-13T01:07:05.432Z,101271.34
2023-05-13T01:09:42.439Z,101289.25
2023-05-13T01:12:16.037Z,101280.34
2023-05-13T01:14:47.659Z,101273.00
2023-05-13T01:17:17.431Z,101282.25
2023-05-13T01:19:46.236Z,101276.00
2023-05-13T01:22:14.049Z,101274.06
2023-05-13T01:24:40.515Z,101277.31
2023-05-13T01:27:07.315Z,101274.59
2023-05-13T01:29:33.979Z,101276.91
2023-05-13T01:32:01.745Z,101274.31
2023-05-13T01:34:29.174Z,101269.94
2023-05-13T01:36:55.756Z,101276.94
2023-05-13T01:39:25.185Z,101282.59
2023-05-13T01:41:51.757Z,101284.38
2023-05-13T01:44:18.440Z,101276.41
2023-05-13T01:46:45.355Z,101283.91
2023-05-13T01:49:11.925Z,101270.00
2023-05-13T01:51:38.320Z,101282.56
2023-05-13T01:54:04.871Z,101281.28
2023-05-13T01:56:32.664Z,101276.50
2023-05-13T01:58:59.069Z,101277.81
2023-05-13T02:01:25.563Z,101280.69
2023-05-13T02:03:52.106Z,101280.38
2023-05-13T02:06:18.536Z,101288.91
2023-05-13T02:08:45.093Z,101281.59
2023-05-13T02:11:11.470Z,101285.31
2023-05-13T02:13:39.177Z,101282.59
2023-05-13T02:16:05.834Z,101281.66
2023-05-13T02:18:32.346Z,101280.75
2023-05-13T02:20:58.787Z,101283.47
2023-05-13T02:23:25.145Z,101282.81
2023-05-13T02:25:51.488Z,101277.47
2023-05-13T02:28:17.891Z,101281.69
2023-05-13T02:30:45.606Z,101281.19
2023-05-13T02:33:12.498Z,101280.69
2023-05-13T02:35:39.095Z,101282.94
2023-05-13T02:38:05.550Z,101285.81
2023-05-13T02:40:31.963Z,101279.13
2023-05-13T02:42:58.320Z,101285.50
2023-05-13T02:45:26.648Z,101292.16
2023-05-13T02:47:54.409Z,101280.56
2023-05-13T02:50:21.125Z,101280.97
2023-05-13T02:52:47.695Z,101281.91
2023-05-13T02:55:14.161Z,101282.53
2023-05-13T02:57:40.590Z,101286.22
2023-05-13T03:00:08.284Z,101286.56
2023-05-13T03:02:35.093Z,101282.84
2023-05-13T03:05:03.377Z,101282.72
2023-05-13T03:07:29.786Z,101282.19
2023-05-13T03:09:56.145Z,101289.44
2023-05-13T03:12:22.609Z,101286.06
2023-05-13T03:14:48.994Z,101281.16
2023-05-13T03:17:15.489Z,101287.69
2023-05-13T03:19:41.882Z,101293.91
2023-05-13T03:22:09.652Z,101287.25
2023-05-13T03:24:36.009Z,101294.59
2023-05-13T03:27:02.518Z,101296.56
2023-05-13T03:29:28.913Z,101308.66
2023-05-13T03:31:55.379Z,101302.25
2023-05-13T03:34:21.759Z,101304.28
2023-05-13T03:36:48.168Z,101305.34
2023-05-13T03:39:15.906Z,101299.66
2023-05-13T03:41:42.346Z,101298.22
2023-05-13T03:44:08.739Z,101306.56
2023-05-13T03:46:35.147Z,101302.94
2023-05-13T03:49:01.634Z,101309.44
2023-05-13T03:51:28.006Z,101312.38
2023-05-13T03:53:54.453Z,101311.97
2023-05-13T03:56:22.367Z,101317.16
2023-05-13T03:58:48.764Z,101308.81
2023-05-13T04:01:15.169Z,101316.59
2023-05-13T04:03:41.598Z,101314.13
2023-05-13T04:06:08.087Z,101316.72
2023-05-13T04:08:34.488Z,101319.13
2023-05-13T04:11:00.853Z,101319.47
2023-05-13T04:13:28.542Z,101319.34
2023-05-13T04:15:54.917Z,101322.13
2023-05-13T04:18:21.691Z,101321.91
2023-05-13T04:20:48.054Z,101318.56
2023-05-13T04:23:14.479Z,101316.09
2023-05-13T04:25:41.133Z,101320.75
2023-05-13T04:28:07.504Z,101325.78
2023-05-13T04:30:35.644Z,101317.72
2023-05-13T04:33:02.115Z,101324.34
2023-05-13T04:35:28.522Z,101327.25
2023-05-13T04:37:54.880Z,101323.44
2023-05-13T04:40:21.715Z,101330.34
2023-05-13T04:42:48.230Z,101326.84
2023-05-13T04:45:14.776Z,101328.41
2023-05-13T04:47:42.648Z,101328.19
2023-05-13T04:50:09.857Z,101338.63
2023-05-13T04:52:36.589Z,101324.56
2023-05-13T04:55:03.164Z,101329.53
2023-05-13T04:57:29.584Z,101334.44
2023-05-13T04:59:55.917Z,101338.63
2023-05-13T05:02:22.530Z,101336.94
2023-05-13T05:04:50.220Z,101342.41
2023-05-13T05:07:16.625Z,101341.75
2023-05-13T05:09:42.997Z,101345.63
2023-05-13T05:12:09.432Z,101349.09
2023-05-13T05:14:35.764Z,101346.19
2023-05-13T05:17:02.183Z,101346.84
2023-05-13T05:19:28.657Z,101347.31
2023-05-13T05:21:56.467Z,101351.34
2023-05-13T05:24:22.872Z,101349.81
2023-05-13T05:26:49.293Z,101343.69
2023-05-13T05:29:15.689Z,101354.22
2023-05-13T05:31:42.234Z,101366.13
2023-05-13T05:34:08.666Z,101356.44
2023-05-13T05:36:38.025Z,101360.84
2023-05-13T05:39:05.990Z,101359.13
2023-05-13T05:41:32.491Z,101355.22
2023-05-13T05:43:58.957Z,101360.56
2023-05-13T05:46:25.417Z,101369.13
2023-05-13T05:48:51.872Z,101360.00
2023-05-13T05:51:18.290Z,101364.50
2023-05-13T05:53:44.666Z,101362.50
2023-05-13T05:56:12.356Z,101365.38
2023-05-13T05:58:38.862Z,101366.53
2023-05-13T06:01:05.423Z,101366.56
2023-05-13T06:03:31.943Z,101362.56
2023-05-13T06:05:58.312Z,101363.75
2023-05-13T06:08:24.809Z,101366.75
2023-05-13T06:10:51.164Z,101363.09
2023-05-13T06:13:18.855Z,101360.25
2023-05-13T06:15:45.416Z,101363.88
2023-05-13T06:18:11.996Z,101363.75
2023-05-13T06:20:38.416Z,101358.22
2023-05-13T06:23:04.800Z,101360.78
2023-05-13T06:25:31.158Z,101360.38
2023-05-13T06:27:57.561Z,101359.25
2023-05-13T06:30:27.189Z,101356.31
2023-05-13T06:33:00.979Z,101356.13
2023-05-13T06:35:28.412Z,101368.13
2023-05-13T06:37:54.761Z,101360.38
2023-05-13T06:40:21.334Z,101369.75
2023-05-13T06:42:47.801Z,101369.69
2023-05-13T06:45:14.204Z,101365.09
2023-05-13T06:47:41.923Z,101369.25
2023-05-13T06:50:08.826Z,101373.53
2023-05-13T06:52:35.174Z,101376.44
2023-05-13T06:55:01.524Z,101379.91
2023-05-13T06:57:41.334Z,101371.72
2023-05-13T07:00:08.749Z,101363.38
2023-05-13T07:02:35.144Z,101365.06
2023-05-13T07:05:03.191Z,101372.41
2023-05-13T07:07:29.581Z,101369.00
2023-05-13T07:09:56.162Z,101359.03
2023-05-13T07:12:22.700Z,101366.81
2023-05-13T07:14:49.121Z,101361.75
2023-05-13T07:17:15.530Z,101362.22
2023-05-13T07:19:41.949Z,101362.53
2023-05-13T07:22:09.637Z,101359.31
2023-05-13T07:24:36.026Z,101364.75
2023-05-13T07:27:02.393Z,101365.53
2023-05-13T07:29:30.300Z,101357.59
2023-05-13T07:31:56.664Z,101364.88
2023-05-13T07:34:23.013Z,101354.44
2023-05-13T07:36:49.375Z,101353.94
2023-05-13T07:39:17.123Z,101350.13
2023-05-13T07:41:43.512Z,101357.56
2023-05-13T07:44:09.852Z,101344.44
2023-05-13T07:46:36.237Z,101354.19
2023-05-13T07:49:02.589Z,101356.09
2023-05-13T07:51:28.991Z,101353.47
2023-05-13T07:53:55.374Z,101347.41
2023-05-13T07:56:23.052Z,101344.44
2023-05-13T07:58:49.479Z,101346.91
2023-05-13T08:01:16.138Z,101342.50
2023-05-13T08:03:42.624Z,101348.91
2023-05-13T08:06:09.118Z,101346.53
2023-05-13T08:08:35.481Z,101347.44
2023-05-13T08:11:01.856Z,101352.72
2023-05-13T08:13:29.546Z,101352.28
2023-05-13T08:15:56.052Z,101345.75
2023-05-13T08:18:22.478Z,101352.78
2023-05-13T08:20:48.824Z,101342.28
2023-05-13T08:23:15.219Z,101342.13
2023-05-13T08:25:41.615Z,101345.69
2023-05-13T08:28:07.985Z,101341.84
2023-05-13T08:30:35.694Z,101342.34
2023-05-13T08:33:02.115Z,101352.00
2023-05-13T08:35:28.498Z,101343.13
2023-05-13T08:37:54.860Z,101349.09
2023-05-13T08:40:21.263Z,101349.44
2023-05-13T08:42:50.613Z,101352.41
2023-05-13T08:45:24.008Z,101352.09
2023-05-13T08:47:55.481Z,101356.94
2023-05-13T08:50:22.256Z,101358.63
2023-05-13T08:52:50.254Z,101356.44
2023-05-13T08:55:17.396Z,101359.72
2023-05-13T08:57:44.551Z,101359.66
2023-05-13T09:00:12.130Z,101362.19
2023-05-13T09:02:38.576Z,101359.84
2023-05-13T09:05:08.035Z,101355.84
2023-05-13T09:07:35.193Z,101359.44
2023-05-13T09:10:01.611Z,101350.94
2023-05-13T09:12:44.725Z,101355.19
2023-05-13T09:15:13.026Z,101358.69
2023-05-13T09:17:39.907Z,101365.91
2023-05-13T09:20:13.027Z,101357.66
2023-05-13T09:22:45.565Z,101355.63
2023-05-13T09:25:13.083Z,101352.22
2023-05-13T09:27:41.917Z,101359.72
2023-05-13T09:30:09.541Z,101349.50
2023-05-13T09:32:35.947Z,101352.22
2023-05-13T09:35:11.662Z,101351.72
2023-05-13T09:37:38.102Z,101351.13
2023-05-13T09:40:05.884Z,101351.53
2023-05-13T09:42:32.300Z,101354.19
2023-05-13T09:45:05.217Z,101347.34
2023-05-13T09:47:31.767Z,101345.16
2023-05-13T09:49:58.136Z,101343.03
2023-05-13T09:52:25.826Z,101345.16
2023-05-13T09:54:52.166Z,101341.16
2023-05-13T09:57:18.511Z,101341.06
2023-05-13T09:59:44.920Z,101351.63
2023-05-13T10:02:15.157Z,101349.75
2023-05-13T10:04:42.653Z,101347.03
2023-05-13T10:07:11.462Z,101347.84
2023-05-13T10:09:40.433Z,101356.06
2023-05-13T10:12:08.267Z,101348.66
2023-05-13T10:14:35.764Z,101351.56
2023-05-13T10:17:02.775Z,101341.03
2023-05-13T10:19:29.289Z,101339.75
2023-05-13T10:21:56.587Z,101355.19
2023-05-13T10:24:23.091Z,101349.03
2023-05-13T10:26:52.016Z,101344.56
2023-05-13T10:29:19.270Z,101343.53
2023-05-13T10:31:46.888Z,101341.63
2023-05-13T10:34:13.452Z,101329.16
2023-05-13T10:36:56.980Z,101337.47
2023-05-13T10:39:52.168Z,101341.84
2023-05-13T10:42:39.506Z,101350.25
2023-05-13T10:45:07.690Z,101349.72
2023-05-13T10:47:34.817Z,101344.63
2023-05-13T10:50:05.389Z,101341.16
2023-05-13T10:52:42.699Z,101334.25
2023-05-13T10:55:15.856Z,101338.16
2023-05-13T10:58:03.981Z,101328.56
2023-05-13T11:00:31.718Z,101330.53
2023-05-13T11:03:08.898Z,101327.13
2023-05-13T11:05:35.960Z,101332.50
2023-05-13T11:08:02.334Z,101333.47
2023-05-13T11:10:29.322Z,101327.25
2023-05-13T11:13:21.029Z,101334.06
2023-05-13T11:15:49.927Z,101323.94
2023-05-13T11:18:16.354Z,101318.38
2023-05-13T11:20:52.753Z,101321.44
2023-05-13T11:23:20.335Z,101316.38
2023-05-13T11:25:47.361Z,101320.13
2023-05-13T11:28:18.018Z,101315.94
2023-05-13T11:30:54.025Z,101319.81
2023-05-13T11:33:20.493Z,101313.00
2023-05-13T11:35:53.784Z,101319.63
2023-05-13T11:38:22.100Z,101320.28
2023-05-13T11:40:48.818Z,101318.88
2023-05-13T11:43:19.483Z,101317.97
2023-05-13T11:45:46.529Z,101328.34
2023-05-13T11:48:20.288Z,101323.22
2023-05-13T11:50:46.699Z,101322.69
2023-05-13T11:53:19.817Z,101321.91
2023-05-13T11:55:46.193Z,101326.09
2023-05-13T11:58:14.339Z,101321.00
2023-05-13T12:00:42.535Z,101319.78
2023-05-13T12:03:11.457Z,101310.72
2023-05-13T12:05:38.098Z,101306.25
2023-05-13T12:08:06.995Z,101308.97
2023-05-13T12:10:33.528Z,101303.25
2023-05-13T12:12:59.947Z,101299.56
2023-05-13T12:15:27.655Z,101316.84
2023-05-13T12:17:55.480Z,101303.44
2023-05-13T12:20:23.120Z,101295.31
2023-05-13T12:22:51.697Z,101299.13
2023-05-13T12:25:38.428Z,101306.75
2023-05-13T12:28:09.542Z,101312.06
2023-05-13T12:30:36.911Z,101303.44
2023-05-13T12:33:04.989Z,101301.19
2023-05-13T12:35:31.519Z,101309.09
2023-05-13T12:38:02.440Z,101301.69
2023-05-13T12:40:28.963Z,101302.19
2023-05-13T12:42:58.326Z,101305.75
2023-05-13T12:45:29.065Z,101298.94
2023-05-13T12:47:55.778Z,101299.25
2023-05-13T12:50:24.182Z,101302.56
2023-05-13T12:52:50.543Z,101300.25
2023-05-13T12:55:16.953Z,101308.50
2023-05-13T12:57:43.638Z,101298.16
2023-05-13T13:00:11.054Z,101300.25
2023-05-13T13:02:39.500Z,101303.84
2023-05-13T13:05:06.848Z,101299.56
2023-05-13T13:07:34.535Z,101310.66
2023-05-13T13:10:00.906Z,101303.47
2023-05-13T13:12:27.279Z,101300.81
2023-05-13T13:14:53.647Z,101305.28
2023-05-13T13:17:19.991Z,101297.19
2023-05-13T13:19:46.378Z,101286.47
2023-05-13T13:22:12.720Z,101280.97
2023-05-13T13:24:40.429Z,101280.16
2023-05-13T13:27:06.906Z,101275.91
2023-05-13T13:29:33.262Z,101276.66
2023-05-13T13:31:59.852Z,101273.66
2023-05-13T13:34:26.410Z,101280.97
2023-05-13T13:36:52.793Z,101278.34
2023-05-13T13:39:19.137Z,101279.63
2023-05-13T13:41:46.856Z,101280.03
2023-05-13T13:44:13.510Z,101272.47
2023-05-13T13:46:40.021Z,101270.50
2023-05-13T13:49:20.312Z,101274.25
2023-05-13T13:51:50.221Z,101270.88
2023-05-13T13:54:16.601Z,101265.31
2023-05-13T13:56:42.964Z,101262.88
2023-05-13T13:59:10.696Z,101264.88
2023-05-13T14:01:37.174Z,101259.13
2023-05-13T14:04:10.479Z,101264.69
2023-05-13T14:06:37.015Z,101262.25
2023-05-13T14:09:03.604Z,101256.69
2023-05-13T14:11:29.984Z,101256.75
2023-05-13T14:13:56.358Z,101251.22
2023-05-13T14:16:24.135Z,101247.81
2023-05-13T14:18:50.549Z,101264.78
2023-05-13T14:21:17.052Z,101254.91
2023-05-13T14:23:43.419Z,101249.00
2023-05-13T14:26:10.000Z,101255.09
2023-05-13T14:28:36.481Z,101253.84
2023-05-13T14:31:03.117Z,101247.75
2023-05-13T14:33:30.889Z,101245.34
2023-05-13T14:35:57.678Z,101245.56
2023-05-13T14:38:24.114Z,101238.63
2023-05-13T14:40:50.501Z,101245.19
2023-05-13T14:43:16.897Z,101235.25
2023-05-13T14:45:43.312Z,101251.03
2023-05-13T14:48:09.772Z,101250.84
2023-05-13T14:50:38.277Z,101249.75
2023-05-13T14:53:05.685Z,101237.19
2023-05-13T14:55:32.096Z,101244.72
2023-05-13T14:57:58.551Z,101235.25
2023-05-13T15:00:25.818Z,101234.72
2023-05-13T15:02:52.300Z,101239.16
2023-05-13T15:05:18.768Z,101224.53
2023-05-13T15:07:46.472Z,101230.91
2023-05-13T15:10:12.885Z,101223.97
2023-05-13T15:12:39.431Z,101232.34
2023-05-13T15:15:07.167Z,101227.06
2023-05-13T15:17:33.587Z,101228.50
2023-05-13T15:20:00.184Z,101227.25
2023-05-13T15:22:26.581Z,101225.50
2023-05-13T15:24:54.326Z,101216.47
2023-05-13T15:27:20.739Z,101216.00
2023-05-13T15:29:47.103Z,101219.91
2023-05-13T15:32:13.428Z,101220.81
2023-05-13T15:34:39.799Z,101212.91
2023-05-13T15:37:06.141Z,101207.47
2023-05-13T15:39:32.505Z,101211.78
2023-05-13T15:42:00.388Z,101212.69
2023-05-13T15:44:26.994Z,101219.91
2023-05-13T15:46:53.488Z,101212.78
2023-05-13T15:49:19.935Z,101215.03
2023-05-13T15:51:46.295Z,101211.31
2023-05-13T15:54:12.639Z,101206.44
2023-05-13T15:56:39.022Z,101202.63
2023-05-13T15:59:06.782Z,101208.75
2023-05-13T16:01:33.247Z,101206.47
2023-05-13T16:03:59.679Z,101206.84
2023-05-13T16:06:26.087Z,101206.09
2023-05-13T16:08:53.659Z,101201.56
2023-05-13T16:11:22.265Z,101199.19
2023-05-13T16:13:48.611Z,101187.78
2023-05-13T16:16:16.371Z,101202.75
2023-05-13T16:18:42.820Z,101187.81
2023-05-13T16:21:09.199Z,101208.59
2023-05-13T16:23:35.583Z,101201.19
2023-05-13T16:26:02.298Z,101209.66
2023-05-13T16:28:28.819Z,101205.78
2023-05-13T16:30:56.721Z,101206.78
2023-05-13T16:33:26.199Z,101205.78
2023-05-13T16:35:52.564Z,101199.84
2023-05-13T16:38:18.943Z,101194.91
2023-05-13T16:40:45.346Z,101192.91
2023-05-13T16:43:11.677Z,101199.03
2023-05-13T16:45:38.068Z,101196.19
2023-05-13T16:48:05.170Z,101194.59
2023-05-13T16:50:32.932Z,101188.63
2023-05-13T16:52:59.320Z,101190.03
2023-05-13T16:55:25.694Z,101197.94
2023-05-13T16:57:52.125Z,101200.25
2023-05-13T17:00:19.179Z,101191.81
2023-05-13T17:02:45.783Z,101189.16
2023-05-13T17:05:12.226Z,101194.47
2023-05-13T17:07:39.939Z,101187.97
2023-05-13T17:10:07.363Z,101195.63
2023-05-13T17:12:33.751Z,101192.13
2023-05-13T17:15:00.140Z,101185.31
2023-05-13T17:17:26.734Z,101190.84
2023-05-13T17:19:53.184Z,101190.00
2023-05-13T17:22:20.103Z,101185.22
2023-05-13T17:24:47.971Z,101181.41
2023-05-13T17:27:14.350Z,101179.63
2023-05-13T17:29:40.763Z,101181.75
2023-05-13T17:32:07.696Z,101172.25
2023-05-13T17:34:34.077Z,101181.41
2023-05-13T17:37:00.444Z,101175.91
2023-05-13T17:39:26.858Z,101181.50
2023-05-13T17:41:54.588Z,101175.47
2023-05-13T17:44:20.962Z,101177.50
2023-05-13T17:46:47.330Z,101175.63
2023-05-13T17:49:13.763Z,101176.19
2023-05-13T17:51:40.162Z,101179.69
2023-05-13T17:54:06.641Z,101174.41
2023-05-13T17:56:33.044Z,101178.66
2023-05-13T17:59:00.769Z,101180.72
2023-05-13T18:01:27.198Z,101185.25
2023-05-13T18:03:53.574Z,101186.16
2023-05-13T18:06:19.921Z,101185.06
2023-05-13T18:08:46.316Z,101185.94
2023-05-13T18:11:12.665Z,101195.25
2023-05-13T18:13:39.016Z,101189.31
2023-05-13T18:16:07.320Z,101191.06
2023-05-13T18:18:33.757Z,101186.97
2023-05-13T18:21:01.292Z,101189.69
2023-05-13T18:23:27.670Z,101187.53
2023-05-13T18:25:56.262Z,101195.91
2023-05-13T18:28:23.014Z,101192.91
2023-05-13T18:30:49.554Z,101205.47
2023-05-13T18:33:19.314Z,101194.94
2023-05-13T18:35:45.717Z,101195.16
2023-05-13T18:38:12.124Z,101201.56
2023-05-13T18:40:38.485Z,101206.47
2023-05-13T18:43:04.835Z,101204.19
2023-05-13T18:45:31.346Z,101206.28
2023-05-13T18:47:57.762Z,101206.78
2023-05-13T18:50:25.817Z,101208.91
2023-05-13T18:52:52.225Z,101200.56
2023-05-13T18:55:18.728Z,101207.00
2023-05-13T18:57:45.117Z,101204.66
2023-05-13T19:00:12.534Z,101209.25
2023-05-13T19:02:39.466Z,101206.75
2023-05-13T19:05:07.500Z,101207.72
2023-05-13T19:07:35.214Z,101208.44
2023-05-13T19:10:01.669Z,101204.84
2023-05-13T19:12:28.044Z,101211.03
2023-05-13T19:14:54.516Z,101212.66
2023-05-13T19:17:21.061Z,101215.69
2023-05-13T19:19:47.470Z,101205.25
2023-05-13T19:22:13.894Z,101209.81
2023-05-13T19:24:41.686Z,101222.28
2023-05-13T19:27:08.808Z,101216.69
2023-05-13T19:29:35.582Z,101222.69
2023-05-13T19:32:02.020Z,101225.28
2023-05-13T19:34:28.472Z,101218.34
2023-05-13T19:36:55.212Z,101222.41
2023-05-13T19:39:21.574Z,101220.19
2023-05-13T19:41:49.328Z,101227.25
2023-05-13T19:44:15.713Z,101228.00
2023-05-13T19:46:42.194Z,101215.59
2023-05-13T19:49:08.628Z,101218.56
2023-05-13T19:51:35.016Z,101219.66
2023-05-13T19:54:01.401Z,101222.56
2023-05-13T19:56:27.836Z,101223.97
2023-05-13T19:58:55.592Z,101231.09
2023-05-13T20:01:21.961Z,101225.88
2023-05-13T20:03:48.534Z,101223.97
2023-05-13T20:06:15.173Z,101231.81
2023-05-13T20:08:41.547Z,101223.34
2023-05-13T20:11:07.921Z,101232.78
2023-05-13T20:13:34.342Z,101235.47
2023-05-13T20:16:02.077Z,101234.34
2023-05-13T20:18:29.061Z,101228.41
2023-05-13T20:20:55.541Z,101223.06
2023-05-13T20:23:21.917Z,101220.84
2023-05-13T20:25:48.331Z,101228.69
2023-05-13T20:28:14.734Z,101223.97
2023-05-13T20:30:41.118Z,101218.22
2023-05-13T20:33:09.021Z,101225.09
2023-05-13T20:35:35.591Z,101223.69
2023-05-13T20:38:02.067Z,101221.50
2023-05-13T20:40:28.458Z,101220.66
2023-05-13T20:42:54.848Z,101223.44
2023-05-13T20:45:22.749Z,101223.19
2023-05-13T20:47:49.169Z,101223.22
2023-05-13T20:50:17.013Z,101214.59
2023-05-13T20:52:43.431Z,101220.03
2023-05-13T20:55:09.921Z,101218.38
2023-05-13T20:57:36.360Z,101220.13
2023-05-13T21:00:03.203Z,101221.53
2023-05-13T21:02:29.659Z,101218.88
2023-05-13T21:04:56.174Z,101223.47
2023-05-13T21:07:23.888Z,101216.63
2023-05-13T21:09:50.251Z,101219.91
2023-05-13T21:12:16.760Z,101229.31
2023-05-13T21:14:43.122Z,101222.22
2023-05-13T21:17:09.674Z,101221.91
2023-05-13T21:19:36.113Z,101221.88
2023-05-13T21:22:02.559Z,101229.66
2023-05-13T21:24:30.491Z,101234.41
2023-05-13T21:26:57.275Z,101229.50
2023-05-13T21:29:23.771Z,101229.81
2023-05-13T21:31:50.174Z,101232.41
2023-05-13T21:34:16.550Z,101234.09
2023-05-13T21:36:43.107Z,101236.06
2023-05-13T21:39:09.647Z,101225.66
2023-05-13T21:41:37.537Z,101229.09
2023-05-13T21:44:04.098Z,101226.81
2023-05-13T21:46:30.482Z,101225.81
2023-05-13T21:48:59.345Z,101223.19
2023-05-13T21:51:25.815Z,101223.91
2023-05-13T21:53:52.219Z,101231.03
2023-05-13T21:56:18.616Z,101231.22
2023-05-13T21:58:46.334Z,101235.03
2023-05-13T22:01:12.700Z,101229.13
2023-05-13T22:03:40.721Z,101230.28
2023-05-13T22:06:07.955Z,101236.63
2023-05-13T22:08:34.312Z,101236.31
2023-05-13T22:11:00.759Z,101238.19
2023-05-13T22:13:27.161Z,101234.75
2023-05-13T22:15:54.928Z,101237.53
2023-05-13T22:18:21.513Z,101232.31
2023-05-13T22:20:47.938Z,101236.72
2023-05-13T22:23:14.264Z,101241.81
2023-05-13T22:25:40.651Z,101242.63
2023-05-13T22:28:07.081Z,101247.06
2023-05-13T22:30:33.508Z,101242.63
2023-05-13T22:33:01.344Z,101245.09
2023-05-13T22:35:28.014Z,101245.66
2023-05-13T22:37:54.392Z,101239.44
2023-05-13T22:40:20.942Z,101237.09
2023-05-13T22:42:47.501Z,101247.50
2023-05-13T22:45:14.084Z,101236.31
2023-05-13T22:47:40.537Z,101245.31
2023-05-13T22:50:09.161Z,101253.81
2023-05-13T22:52:35.517Z,101242.75
2023-05-13T22:55:01.909Z,101242.19
2023-05-13T22:57:28.269Z,101254.81
2023-05-13T22:59:54.626Z,101249.47
2023-05-13T23:02:21.157Z,101246.81
2023-05-13T23:04:47.642Z,101246.38
2023-05-13T23:07:15.587Z,101248.19
2023-05-13T23:09:41.984Z,101249.63
2023-05-13T23:12:08.445Z,101236.81
2023-05-13T23:14:34.817Z,101241.16
2023-05-13T23:17:01.209Z,101247.03
2023-05-13T23:19:27.584Z,101244.09
2023-05-13T23:21:53.948Z,101249.22
2023-05-13T23:24:22.001Z,101260.59
2023-05-13T23:26:48.702Z,101244.72
2023-05-13T23:29:15.049Z,101252.47
2023-05-13T23:31:41.497Z,101254.19
2023-05-13T23:34:08.264Z,101250.38
2023-05-13T23:36:34.688Z,101248.44
2023-05-13T23:39:01.190Z,101246.25
2023-05-13T23:41:29.009Z,101237.59
2023-05-13T23:43:55.399Z,101237.50
2023-05-13T23:46:21.927Z,101239.69
2023-05-13T23:48:48.365Z,101239.81
2023-05-13T23:51:14.728Z,101232.88
2023-05-13T23:53:41.140Z,101234.44
2023-05-13T23:56:07.801Z,101230.00
2023-05-13T23:58:35.546Z,101233.56
